createdAt,value
2022-11-24T00:01:05.084Z,9.40
2022-11-24T00:04:08.006Z,7.93
2022-11-24T00:07:10.513Z,5.93
2022-11-24T00:10:13.057Z,7.07
2022-11-24T00:13:15.582Z,7.07
2022-11-24T00:16:20.799Z,6.30
2022-11-24T00:19:23.399Z,7.18
2022-11-24T00:22:25.959Z,7.88
2022-11-24T00:25:28.756Z,6.90
2022-11-24T00:28:33.711Z,6.82
2022-11-24T00:31:38.628Z,8.18
2022-11-24T00:34:42.136Z,8.48
2022-11-24T00:37:44.639Z,6.15
2022-11-24T00:40:47.119Z,7.33
2022-11-24T00:43:49.953Z,6.20
2022-11-24T00:46:52.623Z,6.57
2022-11-24T00:49:55.185Z,7.57
2022-11-24T00:52:57.653Z,6.32
2022-11-24T00:56:00.155Z,7.17
2022-11-24T00:59:02.734Z,6.20
2022-11-24T01:02:05.291Z,7.38
2022-11-24T01:05:08.528Z,5.82
2022-11-24T01:08:11.856Z,6.63
2022-11-24T01:11:18.801Z,7.13
2022-11-24T01:14:23.488Z,5.95
2022-11-24T01:17:26.856Z,6.38
2022-11-24T01:20:29.610Z,5.55
2022-11-24T01:23:32.574Z,6.00
2022-11-24T01:26:35.086Z,6.07
2022-11-24T01:29:37.657Z,6.22
2022-11-24T01:32:40.200Z,6.18
2022-11-24T01:35:42.718Z,7.13
2022-11-24T01:38:45.294Z,6.40
2022-11-24T01:41:47.841Z,6.97
2022-11-24T01:45:28.546Z,7.00
2022-11-24T01:48:38.800Z,6.35
2022-11-24T01:52:14.411Z,5.93
2022-11-24T01:55:25.472Z,6.75
2022-11-24T01:58:32.247Z,5.97
2022-11-24T02:01:35.154Z,6.70
2022-11-24T02:04:38.591Z,6.85
2022-11-24T02:07:41.572Z,5.35
2022-11-24T02:10:46.340Z,6.45
2022-11-24T02:13:51.786Z,6.40
2022-11-24T02:16:54.649Z,6.60
2022-11-24T02:20:08.204Z,4.53
2022-11-24T02:23:23.038Z,5.85
2022-11-24T02:26:25.489Z,7.20
2022-11-24T02:29:28.555Z,7.20
2022-11-24T02:32:33.359Z,6.78
2022-11-24T02:35:36.097Z,6.30
2022-11-24T02:38:38.606Z,5.43
2022-11-24T02:41:59.331Z,6.47
2022-11-24T02:45:01.998Z,5.63
2022-11-24T02:48:05.474Z,5.97
2022-11-24T02:51:08.222Z,5.93
2022-11-24T02:54:10.966Z,5.47
2022-11-24T02:57:13.502Z,6.63
2022-11-24T03:00:16.643Z,8.00
2022-11-24T03:03:19.145Z,5.78
2022-11-24T03:06:21.714Z,5.75
2022-11-24T03:09:24.481Z,5.78
2022-11-24T03:12:27.065Z,4.85
2022-11-24T03:15:30.055Z,5.03
2022-11-24T03:18:32.885Z,5.47
2022-11-24T03:21:36.852Z,5.20
2022-11-24T03:24:39.613Z,4.75
2022-11-24T03:27:42.215Z,6.60
2022-11-24T03:30:45.142Z,5.33
2022-11-24T03:33:47.836Z,4.88
2022-11-24T03:36:50.441Z,6.15
2022-11-24T03:39:53.043Z,5.05
2022-11-24T03:42:55.600Z,5.80
2022-11-24T03:45:58.170Z,5.03
2022-11-24T03:49:00.742Z,5.97
2022-11-24T03:52:07.778Z,5.53
2022-11-24T03:55:10.831Z,6.05
2022-11-24T03:58:13.452Z,5.18
2022-11-24T04:01:16.069Z,5.07
2022-11-24T04:04:18.947Z,4.40
2022-11-24T04:07:21.487Z,4.90
2022-11-24T04:10:25.095Z,4.45
2022-11-24T04:13:27.772Z,4.80
2022-11-24T04:16:30.360Z,4.10
2022-11-24T04:19:33.185Z,5.50
2022-11-24T04:22:35.945Z,4.68
2022-11-24T04:25:38.918Z,5.13
2022-11-24T04:28:41.906Z,3.70
2022-11-24T04:31:44.463Z,4.27
2022-11-24T04:34:47.037Z,5.18
2022-11-24T04:37:49.584Z,4.53
2022-11-24T04:40:52.136Z,4.97
2022-11-24T04:43:54.593Z,4.13
2022-11-24T04:46:57.195Z,5.20
2022-11-24T04:50:00.404Z,4.38
2022-11-24T04:53:03.524Z,4.15
2022-11-24T04:56:07.261Z,5.25
2022-11-24T04:59:15.144Z,4.97
2022-11-24T05:02:18.284Z,4.83
2022-11-24T05:05:20.903Z,4.22
2022-11-24T05:08:23.427Z,5.00
2022-11-24T05:11:26.020Z,4.75
2022-11-24T05:14:28.520Z,5.10
2022-11-24T05:17:37.511Z,4.50
2022-11-24T05:20:40.096Z,4.82
2022-11-24T05:23:42.798Z,4.20
2022-11-24T05:26:45.281Z,5.65
2022-11-24T05:29:47.801Z,4.15
2022-11-24T05:32:50.333Z,5.47
2022-11-24T05:35:52.958Z,4.80
2022-11-24T05:38:55.506Z,6.82
2022-11-24T05:41:57.991Z,4.05
2022-11-24T05:45:00.433Z,5.53
2022-11-24T05:48:12.413Z,4.00
2022-11-24T05:51:19.851Z,4.88
2022-11-24T05:54:22.403Z,4.63
2022-11-24T05:57:25.003Z,4.22
2022-11-24T06:00:32.703Z,5.00
2022-11-24T06:03:35.220Z,6.37
2022-11-24T06:06:37.732Z,4.45
2022-11-24T06:09:41.435Z,4.05
2022-11-24T06:12:44.129Z,4.13
2022-11-24T06:15:46.612Z,4.38
2022-11-24T06:18:49.223Z,4.67
2022-11-24T06:21:51.860Z,5.13
2022-11-24T06:24:54.364Z,4.15
2022-11-24T06:27:57.581Z,5.00
2022-11-24T06:31:05.001Z,4.82
2022-11-24T06:34:10.967Z,6.07
2022-11-24T06:37:14.220Z,6.22
2022-11-24T06:40:20.029Z,5.80
2022-11-24T06:43:23.380Z,5.03
2022-11-24T06:46:25.937Z,5.45
2022-11-24T06:49:28.551Z,5.30
2022-11-24T06:52:31.906Z,5.03
2022-11-24T06:55:35.528Z,5.55
2022-11-24T06:58:44.438Z,6.38
2022-11-24T07:01:47.439Z,6.07
2022-11-24T07:04:52.414Z,6.73
2022-11-24T07:07:55.677Z,5.55
2022-11-24T07:11:04.481Z,5.30
2022-11-24T07:14:07.721Z,7.13
2022-11-24T07:17:11.159Z,5.65
2022-11-24T07:20:14.977Z,6.37
2022-11-24T07:23:17.837Z,5.57
2022-11-24T07:26:21.550Z,6.30
2022-11-24T07:29:24.181Z,6.22
2022-11-24T07:32:26.945Z,5.38
2022-11-24T07:35:30.634Z,7.07
2022-11-24T07:38:35.828Z,6.50
2022-11-24T07:41:38.552Z,5.82
2022-11-24T07:44:41.321Z,7.82
2022-11-24T07:47:43.868Z,6.60
2022-11-24T07:50:49.934Z,6.40
2022-11-24T07:53:55.434Z,5.07
2022-11-24T07:56:58.092Z,5.32
2022-11-24T08:00:00.600Z,5.85
2022-11-24T08:03:05.666Z,8.70
2022-11-24T08:06:28.584Z,7.07
2022-11-24T08:09:31.220Z,10.85
2022-11-24T08:12:33.790Z,7.30
2022-11-24T08:15:37.641Z,9.13
2022-11-24T08:18:41.276Z,4.63
2022-11-24T08:21:43.808Z,4.73
2022-11-24T08:24:48.854Z,8.82
2022-11-24T08:27:51.420Z,7.05
2022-11-24T08:30:54.053Z,5.90
2022-11-24T08:33:57.237Z,4.80
2022-11-24T08:36:59.806Z,6.17
2022-11-24T08:40:02.260Z,5.45
2022-11-24T08:43:04.791Z,10.15
2022-11-24T08:46:12.567Z,12.07
2022-11-24T08:49:15.499Z,6.97
2022-11-24T08:52:18.320Z,6.70
2022-11-24T08:55:21.526Z,8.15
2022-11-24T08:58:24.036Z,6.55
2022-11-24T09:01:27.620Z,5.78
2022-11-24T09:04:30.954Z,6.30
2022-11-24T09:07:35.102Z,9.17
2022-11-24T09:10:37.792Z,9.15
2022-11-24T09:13:44.116Z,5.25
2022-11-24T09:16:46.748Z,6.30
2022-11-24T09:19:49.735Z,8.32
2022-11-24T09:22:52.331Z,8.57
2022-11-24T09:25:54.976Z,10.63
2022-11-24T09:28:59.377Z,5.75
2022-11-24T09:32:06.513Z,10.75
2022-11-24T09:35:09.742Z,8.32
2022-11-24T09:38:13.557Z,9.20
2022-11-24T09:41:25.172Z,8.48
2022-11-24T09:45:10.387Z,7.05
2022-11-24T09:48:15.491Z,8.05
2022-11-24T09:51:20.880Z,6.70
2022-11-24T09:54:28.781Z,6.50
2022-11-24T09:57:37.696Z,6.72
2022-11-24T10:00:56.338Z,8.23
2022-11-24T10:04:05.962Z,11.60
2022-11-24T10:07:22.309Z,9.40
2022-11-24T10:10:54.543Z,9.17
2022-11-24T10:14:34.919Z,5.82
2022-11-24T10:17:49.725Z,7.80
2022-11-24T10:21:11.349Z,8.15
2022-11-24T10:24:43.057Z,10.38
2022-11-24T10:28:03.728Z,7.87
2022-11-24T10:31:33.125Z,8.65
2022-11-24T10:34:43.999Z,7.45
2022-11-24T10:38:28.805Z,10.95
2022-11-24T10:41:52.486Z,6.43
2022-11-24T10:45:19.722Z,10.60
2022-11-24T10:48:30.892Z,10.15
2022-11-24T10:52:10.245Z,11.07
2022-11-24T10:56:05.434Z,10.27
2022-11-24T10:59:32.449Z,9.93
2022-11-24T11:02:48.682Z,15.20
2022-11-24T11:06:07.448Z,8.77
2022-11-24T11:09:17.359Z,9.63
2022-11-24T11:12:43.317Z,7.38
2022-11-24T11:15:47.047Z,10.95
2022-11-24T11:18:51.418Z,10.07
2022-11-24T11:22:21.551Z,12.32
2022-11-24T11:25:32.874Z,10.73
2022-11-24T11:28:35.460Z,10.25
2022-11-24T11:31:40.892Z,13.38
2022-11-24T11:34:44.098Z,9.03
2022-11-24T11:38:00.457Z,11.05
2022-11-24T11:45:18.066Z,6.88
2022-11-24T11:48:42.823Z,10.20
2022-11-24T11:55:56.212Z,11.50
2022-11-24T11:59:56.235Z,11.15
2022-11-24T12:03:31.759Z,9.90
2022-11-24T12:06:46.366Z,11.20
2022-11-24T12:09:55.927Z,8.80
2022-11-24T12:13:36.571Z,12.00
2022-11-24T12:17:21.482Z,15.77
2022-11-24T12:20:52.009Z,13.23
2022-11-24T12:24:33.298Z,12.15
2022-11-24T12:28:12.917Z,11.20
2022-11-24T12:31:36.725Z,10.98
2022-11-24T12:35:09.161Z,10.63
2022-11-24T12:38:57.925Z,12.07
2022-11-24T12:42:58.071Z,8.48
2022-11-24T12:47:01.927Z,13.13
2022-11-24T12:50:28.914Z,9.77
2022-11-24T12:54:21.932Z,12.70
2022-11-24T12:57:50.256Z,11.25
2022-11-24T13:01:01.913Z,13.10
2022-11-24T13:04:59.936Z,13.87
2022-11-24T13:08:05.839Z,15.00
2022-11-24T13:11:30.704Z,14.68
2022-11-24T13:14:37.709Z,12.52
2022-11-24T13:18:01.418Z,11.80
2022-11-24T13:21:03.618Z,15.63
2022-11-24T13:24:19.341Z,13.68
2022-11-24T13:27:40.874Z,14.95
2022-11-24T13:30:46.688Z,13.13
2022-11-24T13:33:49.636Z,14.80
2022-11-24T13:36:53.813Z,10.93
2022-11-24T13:40:00.763Z,13.88
2022-11-24T13:43:19.369Z,14.68
2022-11-24T13:47:05.589Z,21.35
2022-11-24T13:50:21.620Z,11.68
2022-11-24T13:53:37.455Z,12.17
2022-11-24T13:56:40.059Z,11.35
2022-11-24T13:59:42.881Z,16.60
2022-11-24T14:02:46.144Z,14.30
2022-11-24T14:05:51.781Z,11.82
2022-11-24T14:09:06.707Z,11.57
2022-11-24T14:12:15.258Z,13.05
2022-11-24T14:15:25.194Z,11.20
2022-11-24T14:18:32.118Z,10.98
2022-11-24T14:21:38.239Z,14.23
2022-11-24T14:24:45.363Z,12.23
2022-11-24T14:27:48.206Z,19.85
2022-11-24T14:30:51.710Z,9.88
2022-11-24T14:34:17.100Z,12.27
2022-11-24T14:37:20.501Z,14.20
2022-11-24T14:40:39.918Z,12.50
2022-11-24T14:43:42.433Z,16.17
2022-11-24T14:46:45.230Z,12.57
2022-11-24T14:49:47.786Z,12.90
2022-11-24T14:52:57.306Z,15.50
2022-11-24T14:56:29.347Z,14.23
2022-11-24T14:59:34.840Z,16.58
2022-11-24T15:02:44.693Z,15.13
2022-11-24T15:05:59.575Z,20.67
2022-11-24T15:09:02.401Z,13.98
2022-11-24T15:12:08.701Z,19.60
2022-11-24T15:15:13.939Z,14.00
2022-11-24T15:18:35.208Z,16.63
2022-11-24T15:21:37.736Z,14.75
2022-11-24T15:24:51.130Z,14.95
2022-11-24T15:27:53.909Z,15.17
2022-11-24T15:31:00.949Z,17.33
2022-11-24T15:34:03.469Z,16.35
2022-11-24T15:37:05.978Z,17.90
2022-11-24T15:40:10.540Z,16.77
2022-11-24T15:43:27.664Z,15.40
2022-11-24T15:46:38.144Z,15.07
2022-11-24T15:49:41.067Z,16.77
2022-11-24T15:52:44.778Z,14.30
2022-11-24T15:55:47.982Z,17.80
2022-11-24T15:58:50.568Z,18.77
2022-11-24T16:01:53.223Z,17.27
2022-11-24T16:04:59.191Z,14.75
2022-11-24T16:08:01.857Z,15.07
2022-11-24T16:11:04.380Z,25.10
2022-11-24T16:14:06.992Z,29.00
2022-11-24T16:17:09.523Z,29.48
2022-11-24T16:20:12.701Z,31.42
2022-11-24T16:23:15.994Z,30.77
2022-11-24T16:26:18.619Z,22.30
2022-11-24T16:29:24.122Z,21.97
2022-11-24T16:32:26.706Z,23.55
2022-11-24T16:35:29.165Z,21.58
2022-11-24T16:38:32.107Z,23.92
2022-11-24T16:41:34.675Z,25.05
2022-11-24T16:44:37.319Z,21.60
2022-11-24T16:47:41.975Z,20.40
2022-11-24T16:50:44.600Z,21.98
2022-11-24T16:53:47.430Z,25.08
2022-11-24T16:56:49.956Z,23.70
2022-11-24T16:59:52.551Z,20.77
2022-11-24T17:02:55.265Z,21.90
2022-11-24T17:05:58.830Z,20.75
2022-11-24T17:09:02.077Z,21.35
2022-11-24T17:12:04.899Z,19.33
2022-11-24T17:15:31.746Z,17.93
2022-11-24T17:18:30.319Z,22.90
2022-11-24T17:21:33.347Z,17.60
2022-11-24T17:24:36.258Z,18.58
2022-11-24T17:27:39.040Z,20.67
2022-11-24T17:30:42.062Z,16.53
2022-11-24T17:33:44.761Z,18.10
2022-11-24T17:36:47.756Z,19.83
2022-11-24T17:40:12.856Z,18.27
2022-11-24T17:43:13.873Z,18.98
2022-11-24T17:46:16.865Z,23.10
2022-11-24T17:49:21.439Z,19.80
2022-11-24T17:52:24.980Z,19.65
2022-11-24T17:55:28.070Z,21.25
2022-11-24T17:58:31.868Z,20.00
2022-11-24T18:01:34.898Z,19.27
2022-11-24T18:04:38.258Z,18.73
2022-11-24T18:07:41.854Z,19.17
2022-11-24T18:10:44.984Z,20.75
2022-11-24T18:13:58.247Z,18.23
2022-11-24T18:17:04.957Z,20.53
2022-11-24T18:20:08.202Z,18.60
2022-11-24T18:23:11.979Z,20.05
2022-11-24T18:26:16.952Z,19.50
2022-11-24T18:29:19.883Z,18.65
2022-11-24T18:32:23.221Z,19.93
2022-11-24T18:35:26.216Z,18.85
2022-11-24T18:38:29.296Z,19.63
2022-11-24T18:41:33.100Z,19.52
2022-11-24T18:44:37.231Z,18.30
2022-11-24T18:47:40.327Z,19.87
2022-11-24T18:50:44.894Z,18.45
2022-11-24T18:53:55.619Z,18.45
2022-11-24T18:57:03.124Z,18.35
2022-11-24T19:00:08.235Z,18.73
2022-11-24T19:03:11.342Z,17.37
2022-11-24T19:06:26.338Z,17.75
2022-11-24T19:09:29.322Z,21.13
2022-11-24T19:12:32.359Z,18.05
2022-11-24T19:15:36.165Z,18.95
2022-11-24T19:18:39.615Z,17.60
2022-11-24T19:21:43.561Z,18.52
2022-11-24T19:24:47.587Z,17.88
2022-11-24T19:27:50.337Z,16.52
2022-11-24T19:30:53.645Z,17.85
2022-11-24T19:33:58.944Z,19.07
2022-11-24T19:37:01.609Z,21.60
2022-11-24T19:40:05.421Z,14.88
2022-11-24T19:43:08.013Z,21.45
2022-11-24T19:46:13.757Z,16.88
2022-11-24T19:49:17.684Z,16.07
2022-11-24T19:52:23.633Z,17.95
2022-11-24T19:55:27.770Z,19.75
2022-11-24T19:58:36.813Z,17.25
2022-11-24T20:01:40.535Z,16.50
2022-11-24T20:04:44.295Z,19.90
2022-11-24T20:07:47.351Z,18.52
2022-11-24T20:10:50.336Z,18.55
2022-11-24T20:13:53.242Z,17.92
2022-11-24T20:16:56.764Z,16.95
2022-11-24T20:19:59.623Z,15.43
2022-11-24T20:23:04.250Z,17.77
2022-11-24T20:26:11.012Z,17.58
2022-11-24T20:29:15.121Z,16.85
2022-11-24T20:32:20.762Z,15.32
2022-11-24T20:35:23.799Z,17.60
2022-11-24T20:41:47.399Z,15.93
2022-11-24T20:44:50.655Z,16.77
2022-11-24T20:47:53.717Z,16.13
2022-11-24T20:50:56.891Z,15.60
2022-11-24T20:54:03.883Z,17.73
2022-11-24T20:57:07.098Z,17.65
2022-11-24T21:00:10.419Z,17.15
2022-11-24T21:03:13.440Z,14.85
2022-11-24T21:06:16.201Z,15.90
2022-11-24T21:09:19.455Z,16.48
2022-11-24T21:12:22.592Z,16.45
2022-11-24T21:15:25.608Z,16.73
2022-11-24T21:18:28.189Z,18.55
2022-11-24T21:21:34.687Z,17.83
2022-11-24T21:24:37.669Z,14.38
2022-11-24T21:27:40.716Z,16.83
2022-11-24T21:30:43.665Z,15.63
2022-11-24T21:33:48.684Z,17.90
2022-11-24T21:36:51.188Z,16.47
2022-11-24T21:39:53.674Z,15.55
2022-11-24T21:42:58.918Z,15.27
2022-11-24T21:46:07.075Z,15.95
2022-11-24T21:49:09.755Z,18.05
2022-11-24T21:52:12.346Z,17.80
2022-11-24T21:55:14.854Z,16.05
2022-11-24T21:58:17.470Z,18.73
2022-11-24T22:01:22.582Z,16.48
2022-11-24T22:04:25.285Z,15.95
2022-11-24T22:07:32.456Z,15.90
2022-11-24T22:10:35.905Z,15.20
2022-11-24T22:13:38.999Z,16.25
2022-11-24T22:16:41.549Z,16.52
2022-11-24T22:19:44.035Z,15.27
2022-11-24T22:22:46.546Z,15.63
2022-11-24T22:25:49.070Z,16.98
2022-11-24T22:28:53.046Z,16.90
2022-11-24T22:31:55.546Z,16.02
2022-11-24T22:34:58.167Z,13.88
2022-11-24T22:38:00.650Z,14.10
2022-11-24T22:41:09.329Z,15.80
2022-11-24T22:44:11.861Z,15.95
2022-11-24T22:47:14.447Z,15.35
2022-11-24T22:50:17.269Z,15.63
2022-11-24T22:53:19.670Z,15.47
2022-11-24T22:56:22.582Z,14.68
2022-11-24T22:59:25.100Z,16.30
2022-11-24T23:02:28.357Z,13.05
2022-11-24T23:05:33.259Z,13.13
2022-11-24T23:08:36.300Z,14.10
2022-11-24T23:11:40.684Z,12.88
2022-11-24T23:14:43.128Z,15.77
2022-11-24T23:17:45.704Z,14.52
2022-11-24T23:20:48.194Z,15.98
2022-11-24T23:23:52.711Z,13.30
2022-11-24T23:26:55.272Z,13.23
2022-11-24T23:29:57.969Z,13.75
2022-11-24T23:33:00.493Z,13.05
2022-11-24T23:36:09.814Z,14.77
2022-11-24T23:39:13.591Z,12.40
2022-11-24T23:42:16.255Z,13.02
2022-11-24T23:45:18.778Z,12.98
2022-11-24T23:48:21.469Z,13.52
2022-11-24T23:51:29.535Z,11.35
2022-11-24T23:57:52.286Z,14.10
